createdAt,value
2019-04-30T00:02:05.680Z,57.97
2019-04-30T00:04:37.277Z,57.31
2019-04-30T00:06:57.661Z,57.13
2019-04-30T00:09:25.046Z,56.53
2019-04-30T00:11:50.695Z,56.47
2019-04-30T00:14:16.654Z,55.98
2019-04-30T00:16:45.009Z,55.61
2019-04-30T00:19:10.556Z,55.30
2019-04-30T00:21:36.167Z,55.07
2019-04-30T00:24:06.213Z,54.56
2019-04-30T00:26:28.298Z,54.48
2019-04-30T00:28:55.322Z,54.73
2019-04-30T00:31:23.852Z,54.63
2019-04-30T00:33:47.260Z,54.80
2019-04-30T00:36:14.809Z,54.76
2019-04-30T00:38:39.902Z,54.35
2019-04-30T00:41:10.049Z,54.38
2019-04-30T00:43:32.565Z,54.05
2019-04-30T00:45:58.869Z,53.91
2019-04-30T00:48:29.732Z,53.81
2019-04-30T00:50:51.530Z,53.76
2019-04-30T00:53:17.835Z,53.59
2019-04-30T00:55:48.265Z,53.84
2019-04-30T00:58:10.501Z,53.56
2019-04-30T01:00:37.153Z,53.50
2019-04-30T01:03:07.864Z,53.39
2019-04-30T01:05:29.468Z,53.57
2019-04-30T01:07:55.773Z,53.91
2019-04-30T01:10:24.724Z,54.45
2019-04-30T01:12:50.302Z,54.85
2019-04-30T01:15:14.749Z,55.46
2019-04-30T01:17:45.386Z,55.88
2019-04-30T01:20:09.340Z,56.36
2019-04-30T01:22:33.692Z,56.50
2019-04-30T01:25:01.295Z,56.58
2019-04-30T01:27:26.324Z,56.36
2019-04-30T01:29:52.633Z,56.59
2019-04-30T01:32:21.060Z,57.45
2019-04-30T01:34:49.972Z,58.72
2019-04-30T01:37:11.573Z,60.11
2019-04-30T01:39:39.160Z,61.22
2019-04-30T01:42:07.956Z,62.14
2019-04-30T01:44:30.540Z,62.96
2019-04-30T01:46:58.569Z,63.69
2019-04-30T01:49:25.752Z,63.93
2019-04-30T01:51:52.863Z,64.38
2019-04-30T01:54:20.797Z,65.07
2019-04-30T01:56:42.126Z,65.51
2019-04-30T01:59:09.209Z,66.21
2019-04-30T02:01:34.776Z,66.56
2019-04-30T02:04:01.107Z,66.73
2019-04-30T02:06:29.316Z,66.92
2019-04-30T02:08:53.744Z,67.32
2019-04-30T02:11:20.073Z,67.51
2019-04-30T02:13:46.376Z,67.55
2019-04-30T02:16:12.705Z,68.07
2019-04-30T02:18:39.384Z,68.84
2019-04-30T02:21:05.336Z,69.29
2019-04-30T02:23:31.645Z,70.18
2019-04-30T02:25:58.926Z,70.91
2019-04-30T02:28:24.283Z,71.29
2019-04-30T02:30:50.821Z,71.28
2019-04-30T02:33:19.515Z,71.39
2019-04-30T02:35:43.228Z,71.70
2019-04-30T02:38:10.099Z,70.98
2019-04-30T02:40:35.863Z,69.93
2019-04-30T02:43:02.189Z,69.33
2019-04-30T02:45:29.978Z,68.63
2019-04-30T02:47:54.858Z,69.09
2019-04-30T02:50:22.557Z,68.63
2019-04-30T02:52:50.279Z,68.28
2019-04-30T02:55:13.833Z,68.12
2019-04-30T02:57:40.236Z,68.01
2019-04-30T03:00:06.450Z,67.74
2019-04-30T03:02:32.778Z,67.58
2019-04-30T03:05:00.290Z,67.57
2019-04-30T03:07:25.414Z,67.38
2019-04-30T03:09:51.740Z,67.54
2019-04-30T03:12:20.300Z,67.38
2019-04-30T03:14:44.373Z,66.60
2019-04-30T03:17:10.693Z,66.52
2019-04-30T03:19:37.053Z,66.19
2019-04-30T03:22:03.355Z,66.20
2019-04-30T03:24:29.703Z,66.13
2019-04-30T03:26:56.022Z,65.97
2019-04-30T03:29:23.841Z,66.02
2019-04-30T03:31:52.308Z,66.95
2019-04-30T03:34:24.287Z,68.65
2019-04-30T03:36:41.278Z,69.94
2019-04-30T03:39:10.639Z,70.81
2019-04-30T03:41:34.506Z,71.41
2019-04-30T03:44:16.464Z,71.54
2019-04-30T03:46:29.660Z,71.32
2019-04-30T03:48:53.411Z,71.53
2019-04-30T03:51:19.983Z,71.76
2019-04-30T03:53:46.069Z,72.15
2019-04-30T03:56:12.390Z,72.85
2019-04-30T03:58:39.627Z,73.40
2019-04-30T04:01:05.024Z,73.57
2019-04-30T04:03:31.379Z,74.00
2019-04-30T04:05:59.473Z,73.70
2019-04-30T04:08:23.994Z,73.80
2019-04-30T04:10:53.095Z,73.78
2019-04-30T04:13:16.633Z,73.66
2019-04-30T04:15:42.985Z,73.90
2019-04-30T04:18:10.712Z,74.31
2019-04-30T04:20:35.614Z,74.41
2019-04-30T04:23:01.940Z,74.50
2019-04-30T04:25:29.861Z,74.46
2019-04-30T04:27:54.563Z,74.82
2019-04-30T04:30:20.887Z,74.97
2019-04-30T04:32:49.919Z,74.73
2019-04-30T04:35:13.562Z,75.26
2019-04-30T04:37:39.865Z,75.11
2019-04-30T04:40:06.224Z,74.86
2019-04-30T04:42:33.113Z,74.92
2019-04-30T04:44:59.495Z,75.14
2019-04-30T04:47:25.184Z,74.84
2019-04-30T04:49:53.976Z,74.14
2019-04-30T04:52:21.051Z,73.47
2019-04-30T04:54:44.151Z,73.48
2019-04-30T04:57:17.244Z,72.22
2019-04-30T04:59:36.797Z,71.64
2019-04-30T05:02:03.119Z,71.39
2019-04-30T05:04:29.909Z,71.30
2019-04-30T05:06:55.810Z,70.99
2019-04-30T05:09:22.117Z,70.80
2019-04-30T05:11:48.808Z,69.95
2019-04-30T05:14:14.803Z,69.63
2019-04-30T05:16:41.128Z,69.45
2019-04-30T05:19:08.884Z,69.71
2019-04-30T05:21:41.961Z,70.18
2019-04-30T05:24:00.084Z,69.89
2019-04-30T05:26:26.421Z,70.15
2019-04-30T05:28:53.021Z,69.88
2019-04-30T05:31:21.115Z,69.91
2019-04-30T05:33:45.396Z,69.56
2019-04-30T05:36:11.744Z,70.04
2019-04-30T05:38:39.186Z,81.56
2019-04-30T05:41:04.428Z,89.18
2019-04-30T05:43:30.735Z,92.60
2019-04-30T05:45:58.622Z,93.06
2019-04-30T05:48:23.454Z,80.48
2019-04-30T05:50:51.831Z,79.28
2019-04-30T05:53:16.088Z,76.38
2019-04-30T05:55:42.449Z,77.31
2019-04-30T05:58:09.363Z,79.99
2019-04-30T06:00:35.108Z,79.31
2019-04-30T06:03:01.440Z,79.83
2019-04-30T06:05:28.577Z,80.33
2019-04-30T06:07:55.453Z,82.60
2019-04-30T06:10:20.418Z,83.09
2019-04-30T06:12:46.741Z,84.87
2019-04-30T06:15:13.147Z,82.93
2019-04-30T06:17:39.453Z,81.75
2019-04-30T06:20:17.430Z,79.71
2019-04-30T06:22:32.088Z,80.13
2019-04-30T06:24:59.488Z,79.24
2019-04-30T06:27:31.556Z,79.85
2019-04-30T06:29:58.484Z,80.83
2019-04-30T06:32:24.229Z,80.53
2019-04-30T06:34:50.542Z,79.98
2019-04-30T06:37:16.870Z,81.45
2019-04-30T06:39:43.191Z,82.12
2019-04-30T06:42:12.807Z,80.27
2019-04-30T06:44:39.308Z,79.33
2019-04-30T06:47:02.160Z,77.50
2019-04-30T06:49:28.895Z,77.36
2019-04-30T06:51:54.844Z,76.86
2019-04-30T06:54:21.147Z,77.79
2019-04-30T06:56:48.512Z,80.05
2019-04-30T06:59:13.808Z,81.58
2019-04-30T07:01:40.140Z,83.14
2019-04-30T07:04:06.465Z,85.03
2019-04-30T07:06:37.159Z,82.66
2019-04-30T07:08:59.622Z,81.46
2019-04-30T07:11:25.440Z,82.98
2019-04-30T07:13:52.260Z,84.39
2019-04-30T07:16:18.972Z,85.41
2019-04-30T07:18:44.421Z,86.88
2019-04-30T07:21:10.728Z,85.44
2019-04-30T07:23:38.721Z,82.21
2019-04-30T07:26:03.371Z,84.30
2019-04-30T07:28:43.809Z,81.64
2019-04-30T07:31:08.710Z,82.61
2019-04-30T07:33:22.362Z,85.22
2019-04-30T07:35:49.890Z,84.05
2019-04-30T07:38:14.985Z,86.32
2019-04-30T07:40:41.315Z,87.12
2019-04-30T07:43:09.110Z,84.41
2019-04-30T07:45:33.966Z,82.03
2019-04-30T07:48:00.297Z,84.02
2019-04-30T07:50:27.174Z,82.81
2019-04-30T07:53:02.514Z,82.51
2019-04-30T07:55:19.724Z,81.56
2019-04-30T07:57:45.595Z,85.28
2019-04-30T08:00:11.949Z,73.29
2019-04-30T08:02:43.448Z,70.80
2019-04-30T08:05:04.589Z,79.52
2019-04-30T08:07:31.018Z,89.65
2019-04-30T08:09:58.958Z,92.65
2019-04-30T08:12:30.495Z,88.91
2019-04-30T08:14:49.926Z,84.97
2019-04-30T08:17:16.255Z,79.87
2019-04-30T08:19:42.561Z,77.70
2019-04-30T08:22:09.573Z,77.77
2019-04-30T08:24:35.197Z,78.49
2019-04-30T08:27:01.507Z,82.38
2019-04-30T08:29:29.464Z,82.89
2019-04-30T08:31:54.141Z,82.63
2019-04-30T08:34:20.468Z,85.47
2019-04-30T08:36:48.818Z,84.58
2019-04-30T08:39:13.107Z,80.64
2019-04-30T08:41:39.463Z,76.40
2019-04-30T08:44:05.790Z,74.87
2019-04-30T08:46:32.132Z,68.42
2019-04-30T08:48:58.878Z,64.48
2019-04-30T08:51:24.804Z,63.79
2019-04-30T08:53:51.089Z,64.96
2019-04-30T08:56:21.707Z,65.92
2019-04-30T08:58:43.749Z,63.19
2019-04-30T09:01:10.061Z,64.60
2019-04-30T09:03:36.402Z,66.80
2019-04-30T09:06:02.717Z,66.19
2019-04-30T09:08:29.524Z,63.99
2019-04-30T09:10:55.371Z,61.62
2019-04-30T09:13:21.698Z,61.67
2019-04-30T09:15:49.209Z,62.24
2019-04-30T09:18:14.378Z,62.87
2019-04-30T09:20:40.992Z,65.27
2019-04-30T09:23:07.059Z,68.30
2019-04-30T09:25:33.429Z,71.32
2019-04-30T09:27:59.768Z,73.16
2019-04-30T09:30:26.054Z,75.13
2019-04-30T09:32:52.431Z,76.10
2019-04-30T09:35:19.630Z,84.60
2019-04-30T09:37:45.083Z,89.20
2019-04-30T09:40:18.225Z,92.24
2019-04-30T09:42:39.072Z,96.05
2019-04-30T09:45:04.163Z,96.62
2019-04-30T09:47:30.498Z,97.70
2019-04-30T09:49:59.073Z,99.24
2019-04-30T09:52:23.157Z,96.42
2019-04-30T09:54:50.287Z,95.88
2019-04-30T09:57:15.809Z,94.03
2019-04-30T09:59:42.119Z,93.27
2019-04-30T10:02:09.303Z,94.24
2019-04-30T10:04:35.046Z,94.11
2019-04-30T10:07:01.125Z,94.22
2019-04-30T10:09:29.233Z,93.33
2019-04-30T10:11:53.877Z,95.08
2019-04-30T10:14:20.217Z,94.41
2019-04-30T10:16:46.519Z,94.78
2019-04-30T10:19:14.962Z,94.79
2019-04-30T10:21:39.159Z,95.63
2019-04-30T10:24:14.886Z,97.92
2019-04-30T10:26:31.804Z,96.55
2019-04-30T10:28:58.158Z,95.87
2019-04-30T10:31:24.502Z,95.34
2019-04-30T10:33:50.767Z,94.22
2019-04-30T10:36:17.179Z,92.65
2019-04-30T10:38:43.474Z,92.90
2019-04-30T10:41:09.802Z,92.02
2019-04-30T10:43:36.137Z,89.88
2019-04-30T10:46:02.440Z,92.58
2019-04-30T10:48:28.799Z,93.33
2019-04-30T10:50:55.108Z,93.48
2019-04-30T10:53:21.408Z,92.32
2019-04-30T10:55:48.622Z,92.56
2019-04-30T10:58:15.429Z,91.45
2019-04-30T11:00:40.400Z,91.03
2019-04-30T11:03:17.251Z,89.82
2019-04-30T11:05:33.088Z,87.30
2019-04-30T11:07:59.596Z,90.22
2019-04-30T11:10:25.799Z,92.41
2019-04-30T11:12:52.148Z,93.45
2019-04-30T11:15:20.631Z,95.10
2019-04-30T11:17:44.958Z,93.22
2019-04-30T11:20:11.243Z,90.78
2019-04-30T11:22:37.590Z,92.01
2019-04-30T11:25:03.968Z,91.30
2019-04-30T11:27:31.111Z,90.52
2019-04-30T11:30:01.535Z,90.62
2019-04-30T11:32:22.874Z,90.14
2019-04-30T11:34:49.053Z,87.39
2019-04-30T11:37:15.416Z,86.06
2019-04-30T11:39:41.684Z,86.98
2019-04-30T11:42:08.017Z,84.99
2019-04-30T11:44:34.329Z,81.65
2019-04-30T11:47:00.652Z,74.50
2019-04-30T11:49:26.948Z,73.86
2019-04-30T11:51:53.275Z,77.28
2019-04-30T11:54:19.580Z,73.93
2019-04-30T11:56:45.921Z,75.78
2019-04-30T11:59:12.243Z,79.10
2019-04-30T12:01:38.551Z,80.31
2019-04-30T12:04:04.884Z,81.23
2019-04-30T12:06:31.245Z,78.82
2019-04-30T12:08:59.124Z,80.17
2019-04-30T12:11:23.871Z,75.50
2019-04-30T12:13:50.178Z,71.59
2019-04-30T12:16:18.530Z,70.25
2019-04-30T12:18:42.843Z,70.24
2019-04-30T12:21:09.147Z,71.94
2019-04-30T12:23:35.480Z,77.16
2019-04-30T12:26:02.982Z,77.68
2019-04-30T12:28:29.694Z,77.71
2019-04-30T12:30:54.469Z,79.99
2019-04-30T12:33:20.959Z,81.86
2019-04-30T12:35:51.032Z,83.10
2019-04-30T12:38:16.448Z,86.17
2019-04-30T12:40:42.793Z,76.50
2019-04-30T12:43:09.091Z,69.41
2019-04-30T12:45:35.413Z,64.90
2019-04-30T12:48:01.721Z,62.00
2019-04-30T12:50:29.173Z,58.80
2019-04-30T12:52:54.389Z,58.44
2019-04-30T12:55:22.511Z,56.90
2019-04-30T12:57:58.128Z,59.06
2019-04-30T13:00:13.695Z,58.72
2019-04-30T13:02:44.982Z,59.39
2019-04-30T13:05:09.272Z,56.28
2019-04-30T13:07:36.113Z,54.84
2019-04-30T13:10:02.849Z,53.95
2019-04-30T13:12:28.590Z,52.83
2019-04-30T13:14:54.918Z,51.30
2019-04-30T13:17:20.941Z,49.11
2019-04-30T13:19:47.269Z,46.96
2019-04-30T13:22:13.586Z,46.25
2019-04-30T13:24:42.740Z,46.80
2019-04-30T13:27:15.659Z,43.51
2019-04-30T13:29:35.384Z,42.97
2019-04-30T13:32:04.739Z,42.73
2019-04-30T13:34:31.117Z,42.56
2019-04-30T13:36:59.300Z,41.36
2019-04-30T13:39:23.790Z,42.14
2019-04-30T13:41:51.004Z,41.61
2019-04-30T13:44:16.694Z,42.06
2019-04-30T13:46:42.999Z,40.35
2019-04-30T13:49:09.326Z,41.94
2019-04-30T13:51:35.655Z,40.66
2019-04-30T13:54:01.976Z,41.71
2019-04-30T13:56:28.813Z,41.97
2019-04-30T13:58:54.658Z,40.67
2019-04-30T14:01:21.434Z,39.88
2019-04-30T14:03:48.904Z,39.54
2019-04-30T14:06:13.668Z,40.15
2019-04-30T14:08:39.972Z,39.97
2019-04-30T14:11:06.362Z,39.12
2019-04-30T14:13:32.686Z,38.78
2019-04-30T14:15:59.002Z,38.99
2019-04-30T14:18:30.774Z,39.27
2019-04-30T14:20:51.652Z,39.15
2019-04-30T14:23:18.614Z,38.48
2019-04-30T14:25:55.907Z,37.98
2019-04-30T14:28:10.819Z,38.47
2019-04-30T14:30:39.135Z,38.50
2019-04-30T14:33:03.366Z,37.07
2019-04-30T14:35:29.691Z,36.82
2019-04-30T14:37:56.297Z,37.54
2019-04-30T14:40:23.176Z,39.39
2019-04-30T14:42:49.412Z,41.29
2019-04-30T14:45:15.689Z,42.87
2019-04-30T14:47:42.454Z,44.04
2019-04-30T14:50:09.752Z,45.04
2019-04-30T14:52:34.235Z,45.64
2019-04-30T14:55:00.550Z,46.42
2019-04-30T14:57:26.857Z,46.76
2019-04-30T14:59:53.284Z,46.66
2019-04-30T15:02:22.383Z,46.61
2019-04-30T15:04:46.142Z,46.72
2019-04-30T15:07:12.473Z,51.68
2019-04-30T15:09:38.798Z,52.39
2019-04-30T15:12:05.137Z,51.53
2019-04-30T15:14:31.437Z,49.92
2019-04-30T15:16:57.780Z,49.22
2019-04-30T15:19:24.188Z,49.03
2019-04-30T15:21:50.642Z,50.80
2019-04-30T15:24:16.963Z,49.86
2019-04-30T15:26:44.212Z,49.19
2019-04-30T15:29:13.387Z,48.93
2019-04-30T15:31:35.943Z,48.61
2019-04-30T15:34:03.224Z,48.51
2019-04-30T15:36:29.353Z,49.30
2019-04-30T15:38:54.959Z,52.53
2019-04-30T15:41:21.279Z,53.09
2019-04-30T15:43:47.586Z,51.32
2019-04-30T15:46:13.931Z,50.49
2019-04-30T15:48:40.230Z,50.43
2019-04-30T15:51:06.541Z,49.41
2019-04-30T15:53:33.311Z,48.63
2019-04-30T15:56:00.670Z,48.65
2019-04-30T15:58:25.974Z,48.41
2019-04-30T16:00:52.390Z,48.32
2019-04-30T16:03:18.680Z,48.84
2019-04-30T16:05:45.037Z,49.09
2019-04-30T16:08:11.379Z,49.25
2019-04-30T16:10:39.622Z,49.12
2019-04-30T16:13:04.001Z,49.27
2019-04-30T16:15:30.312Z,49.41
2019-04-30T16:17:56.645Z,49.92
2019-04-30T16:20:22.960Z,49.93
2019-04-30T16:22:49.433Z,49.94
2019-04-30T16:25:15.647Z,50.12
2019-04-30T16:27:41.971Z,50.27
2019-04-30T16:30:09.526Z,50.24
2019-04-30T16:32:34.600Z,50.31
2019-04-30T16:35:00.964Z,50.49
2019-04-30T16:37:28.692Z,50.67
2019-04-30T16:39:53.602Z,50.65
2019-04-30T16:42:19.994Z,50.80
2019-04-30T16:44:46.337Z,50.89
2019-04-30T16:47:16.268Z,51.07
2019-04-30T16:49:38.999Z,52.70
2019-04-30T16:52:05.328Z,53.24
2019-04-30T16:54:31.636Z,53.16
2019-04-30T16:57:04.076Z,53.16
2019-04-30T16:59:24.318Z,53.50
2019-04-30T17:01:57.569Z,53.38
2019-04-30T17:04:19.081Z,59.90
2019-04-30T17:06:43.422Z,61.32
2019-04-30T17:09:09.743Z,60.05
2019-04-30T17:11:36.052Z,56.40
2019-04-30T17:14:02.411Z,55.84
2019-04-30T17:16:30.221Z,55.36
2019-04-30T17:18:55.000Z,55.33
2019-04-30T17:21:21.337Z,55.37
2019-04-30T17:23:50.661Z,55.19
2019-04-30T17:26:13.976Z,55.18
2019-04-30T17:28:40.301Z,55.42
2019-04-30T17:31:06.629Z,55.72
2019-04-30T17:33:33.021Z,55.74
2019-04-30T17:35:59.304Z,55.60
2019-04-30T17:38:25.649Z,55.86
2019-04-30T17:40:51.957Z,55.91
2019-04-30T17:43:18.295Z,56.01
2019-04-30T17:45:44.630Z,55.76
2019-04-30T17:48:13.271Z,55.92
2019-04-30T17:50:37.232Z,55.89
2019-04-30T17:53:03.565Z,56.49
2019-04-30T17:55:29.900Z,57.28
2019-04-30T17:57:56.206Z,57.90
2019-04-30T18:00:22.642Z,58.46
2019-04-30T18:02:48.915Z,58.65
2019-04-30T18:05:15.315Z,58.95
2019-04-30T18:07:41.642Z,59.21
2019-04-30T18:10:08.770Z,58.11
2019-04-30T18:12:34.276Z,57.30
2019-04-30T18:15:00.579Z,57.10
2019-04-30T18:17:26.934Z,57.28
2019-04-30T18:19:53.266Z,57.31
2019-04-30T18:22:19.611Z,57.36
2019-04-30T18:24:45.905Z,57.56
2019-04-30T18:27:12.223Z,57.90
2019-04-30T18:29:38.548Z,58.04
2019-04-30T18:32:04.956Z,57.97
2019-04-30T18:34:31.276Z,58.01
2019-04-30T18:36:59.320Z,58.19
2019-04-30T18:39:23.908Z,58.30
2019-04-30T18:41:50.229Z,58.39
2019-04-30T18:44:16.548Z,58.41
2019-04-30T18:46:42.867Z,58.47
2019-04-30T18:49:10.358Z,58.79
2019-04-30T18:51:39.380Z,63.82
2019-04-30T18:54:01.859Z,69.06
2019-04-30T18:56:28.976Z,69.68
2019-04-30T18:58:54.530Z,68.98
2019-04-30T19:01:20.835Z,68.58
2019-04-30T19:03:49.124Z,66.72
2019-04-30T19:06:22.899Z,65.15
2019-04-30T19:08:39.881Z,64.41
2019-04-30T19:11:06.166Z,64.81
2019-04-30T19:13:32.477Z,64.78
2019-04-30T19:16:18.759Z,66.33
2019-04-30T19:18:25.163Z,72.41
2019-04-30T19:20:51.654Z,72.89
2019-04-30T19:23:19.079Z,73.25
2019-04-30T19:25:44.272Z,68.41
2019-04-30T19:28:14.323Z,66.78
2019-04-30T19:30:38.885Z,65.43
2019-04-30T19:33:03.393Z,64.91
2019-04-30T19:35:29.705Z,64.92
2019-04-30T19:37:56.045Z,64.58
2019-04-30T19:40:22.358Z,64.48
2019-04-30T19:42:50.860Z,64.67
2019-04-30T19:45:15.055Z,64.71
2019-04-30T19:47:41.378Z,64.71
2019-04-30T19:50:09.435Z,64.89
2019-04-30T19:52:34.041Z,64.64
2019-04-30T19:55:00.353Z,65.07
2019-04-30T19:57:28.538Z,64.71
2019-04-30T19:59:53.033Z,65.16
2019-04-30T20:02:21.685Z,64.80
2019-04-30T20:04:47.375Z,64.87
2019-04-30T20:07:13.963Z,65.01
2019-04-30T20:09:42.995Z,64.79
2019-04-30T20:12:06.599Z,64.85
2019-04-30T20:14:32.937Z,65.25
2019-04-30T20:16:59.313Z,65.37
2019-04-30T20:19:25.620Z,65.13
2019-04-30T20:21:54.004Z,65.29
2019-04-30T20:24:19.360Z,65.57
2019-04-30T20:26:44.701Z,65.32
2019-04-30T20:29:11.046Z,65.25
2019-04-30T20:31:38.537Z,65.52
2019-04-30T20:34:03.811Z,65.33
2019-04-30T20:36:30.257Z,64.86
2019-04-30T20:38:56.652Z,64.70
2019-04-30T20:41:22.999Z,64.43
2019-04-30T20:43:49.435Z,64.84
2019-04-30T20:46:15.706Z,65.06
2019-04-30T20:48:41.972Z,65.03
2019-04-30T20:53:34.477Z,66.54
2019-04-30T20:56:00.815Z,68.13
2019-04-30T20:58:27.123Z,67.13
2019-04-30T21:01:01.131Z,66.79
2019-04-30T21:03:19.768Z,66.73
2019-04-30T21:05:46.077Z,66.73
2019-04-30T21:08:12.413Z,66.00
2019-04-30T21:10:39.689Z,65.68
2019-04-30T21:13:05.120Z,65.76
2019-04-30T21:15:34.235Z,65.92
2019-04-30T21:18:00.536Z,65.71
2019-04-30T21:20:28.511Z,65.96
2019-04-30T21:22:53.194Z,66.03
2019-04-30T21:25:19.507Z,66.16
2019-04-30T21:27:45.835Z,66.43
2019-04-30T21:30:12.140Z,66.81
2019-04-30T21:32:38.805Z,66.62
2019-04-30T21:35:04.895Z,66.82
2019-04-30T21:37:31.223Z,66.94
2019-04-30T21:39:58.607Z,67.17
2019-04-30T21:42:23.838Z,67.32
2019-04-30T21:44:50.163Z,67.40
2019-04-30T21:47:16.469Z,67.61
2019-04-30T21:49:42.794Z,68.26
2019-04-30T21:52:09.097Z,67.85
2019-04-30T21:54:35.431Z,68.25
2019-04-30T21:57:01.729Z,67.85
2019-04-30T21:59:28.725Z,67.84
2019-04-30T22:01:54.387Z,68.12
2019-04-30T22:04:20.691Z,68.45
2019-04-30T22:06:47.032Z,68.50
2019-04-30T22:09:13.328Z,68.66
2019-04-30T22:11:39.650Z,68.61
2019-04-30T22:14:05.976Z,68.72
2019-04-30T22:16:32.301Z,68.91
2019-04-30T22:18:58.604Z,68.95
2019-04-30T22:21:24.918Z,68.94
2019-04-30T22:23:51.248Z,69.03
2019-04-30T22:26:17.555Z,68.92
2019-04-30T22:28:43.877Z,69.07
2019-04-30T22:31:10.203Z,69.08
2019-04-30T22:33:36.509Z,69.13
2019-04-30T22:36:02.835Z,69.06
2019-04-30T22:38:29.259Z,69.23
2019-04-30T22:40:55.523Z,69.54
2019-04-30T22:43:21.849Z,69.57
2019-04-30T22:45:49.873Z,69.86
2019-04-30T22:48:14.478Z,70.14
2019-04-30T22:50:40.786Z,70.36
2019-04-30T22:53:07.143Z,70.31
2019-04-30T22:55:33.463Z,70.44
2019-04-30T22:57:59.783Z,70.81
2019-04-30T23:00:26.107Z,70.87
2019-04-30T23:02:53.604Z,71.15
2019-04-30T23:05:20.637Z,71.26
2019-04-30T23:07:46.940Z,71.48
2019-04-30T23:10:13.272Z,71.55
2019-04-30T23:12:39.608Z,71.70
2019-04-30T23:15:05.949Z,71.90
2019-04-30T23:17:32.252Z,71.69
2019-04-30T23:19:58.593Z,72.04
2019-04-30T23:22:24.914Z,72.56
2019-04-30T23:24:51.212Z,72.73
2019-04-30T23:27:17.544Z,72.69
2019-04-30T23:29:43.856Z,72.78
2019-04-30T23:32:10.187Z,72.83
2019-04-30T23:34:36.489Z,72.97
2019-04-30T23:37:02.814Z,72.98
2019-04-30T23:39:29.167Z,72.96
2019-04-30T23:41:55.913Z,72.97
2019-04-30T23:44:22.325Z,73.65
2019-04-30T23:46:48.630Z,73.60
2019-04-30T23:49:14.962Z,73.49
2019-04-30T23:51:41.291Z,73.43
2019-04-30T23:54:07.598Z,73.58
2019-04-30T23:56:33.918Z,74.15
2019-04-30T23:59:00.244Z,74.42
